sensor_id;sensor_type;location;lat;lon;timestamp;temperature;humidity
30069;DHT22;16894;49.456;10.644;2023-06-14T00:01:50;12.70;99.90
30069;DHT22;16894;49.456;10.644;2023-06-14T00:04:16;12.80;99.90
30069;DHT22;16894;49.456;10.644;2023-06-14T00:06:42;12.80;99.90
30069;DHT22;16894;49.456;10.644;2023-06-14T00:09:11;12.70;99.90
30069;DHT22;16894;49.456;10.644;2023-06-14T00:11:41;12.70;99.90
30069;DHT22;16894;49.456;10.644;2023-06-14T00:14:07;12.50;99.90
30069;DHT22;16894;49.456;10.644;2023-06-14T00:16:33;12.50;99.90
30069;DHT22;16894;49.456;10.644;2023-06-14T00:19:01;12.50;99.90
30069;DHT22;16894;49.456;10.644;2023-06-14T00:21:29;12.30;99.90
30069;DHT22;16894;49.456;10.644;2023-06-14T00:23:55;12.10;99.90
30069;DHT22;16894;49.456;10.644;2023-06-14T00:26:21;12.20;99.90
30069;DHT22;16894;49.456;10.644;2023-06-14T00:28:47;12.20;99.90
30069;DHT22;16894;49.456;10.644;2023-06-14T00:31:12;12.20;99.90
30069;DHT22;16894;49.456;10.644;2023-06-14T00:33:38;12.30;99.90
30069;DHT22;16894;49.456;10.644;2023-06-14T00:36:05;12.20;99.90
30069;DHT22;16894;49.456;10.644;2023-06-14T00:38:30;12.20;99.90
30069;DHT22;16894;49.456;10.644;2023-06-14T00:40:56;11.90;99.90
30069;DHT22;16894;49.456;10.644;2023-06-14T00:43:22;11.90;99.90
30069;DHT22;16894;49.456;10.644;2023-06-14T00:45:47;12.10;99.90
30069;DHT22;16894;49.456;10.644;2023-06-14T00:48:15;12.00;99.90
30069;DHT22;16894;49.456;10.644;2023-06-14T00:50:41;11.80;99.90
30069;DHT22;16894;49.456;10.644;2023-06-14T00:53:07;11.70;99.90
30069;DHT22;16894;49.456;10.644;2023-06-14T00:55:33;11.60;99.90
30069;DHT22;16894;49.456;10.644;2023-06-14T00:57:59;11.70;99.90
30069;DHT22;16894;49.456;10.644;2023-06-14T01:00:25;11.60;99.90
30069;DHT22;16894;49.456;10.644;2023-06-14T01:02:51;11.60;99.90
30069;DHT22;16894;49.456;10.644;2023-06-14T01:05:17;11.40;99.90
30069;DHT22;16894;49.456;10.644;2023-06-14T01:10:53;11.40;99.90
30069;DHT22;16894;49.456;10.644;2023-06-14T01:13:30;11.50;99.90
30069;DHT22;16894;49.456;10.644;2023-06-14T01:15:57;11.50;99.90
30069;DHT22;16894;49.456;10.644;2023-06-14T01:18:24;11.60;99.90
30069;DHT22;16894;49.456;10.644;2023-06-14T01:20:51;11.60;99.90
30069;DHT22;16894;49.456;10.644;2023-06-14T01:23:21;11.70;99.90
30069;DHT22;16894;49.456;10.644;2023-06-14T01:25:47;11.70;99.90
30069;DHT22;16894;49.456;10.644;2023-06-14T01:28:15;11.70;99.90
30069;DHT22;16894;49.456;10.644;2023-06-14T01:30:43;11.60;99.90
30069;DHT22;16894;49.456;10.644;2023-06-14T01:33:19;11.50;99.90
30069;DHT22;16894;49.456;10.644;2023-06-14T01:35:49;11.50;99.90
30069;DHT22;16894;49.456;10.644;2023-06-14T01:38:15;11.50;99.90
30069;DHT22;16894;49.456;10.644;2023-06-14T01:40:45;11.10;99.90
30069;DHT22;16894;49.456;10.644;2023-06-14T01:43:14;11.10;99.90
30069;DHT22;16894;49.456;10.644;2023-06-14T01:45:45;11.10;99.90
30069;DHT22;16894;49.456;10.644;2023-06-14T01:48:11;11.20;99.90
30069;DHT22;16894;49.456;10.644;2023-06-14T01:50:38;11.10;99.90
30069;DHT22;16894;49.456;10.644;2023-06-14T01:53:09;11.20;99.90
30069;DHT22;16894;49.456;10.644;2023-06-14T01:55:35;11.30;99.90
30069;DHT22;16894;49.456;10.644;2023-06-14T01:58:06;11.30;99.90
30069;DHT22;16894;49.456;10.644;2023-06-14T02:00:31;11.20;99.90
30069;DHT22;16894;49.456;10.644;2023-06-14T02:02:57;11.10;99.90
30069;DHT22;16894;49.456;10.644;2023-06-14T02:05:23;11.10;99.90
30069;DHT22;16894;49.456;10.644;2023-06-14T02:07:49;11.00;99.90
30069;DHT22;16894;49.456;10.644;2023-06-14T02:10:22;11.00;99.90
30069;DHT22;16894;49.456;10.644;2023-06-14T02:12:48;10.90;99.90
30069;DHT22;16894;49.456;10.644;2023-06-14T02:15:13;10.90;99.90
30069;DHT22;16894;49.456;10.644;2023-06-14T02:17:48;10.90;99.90
30069;DHT22;16894;49.456;10.644;2023-06-14T02:20:17;10.90;99.90
30069;DHT22;16894;49.456;10.644;2023-06-14T02:22:44;10.90;99.90
30069;DHT22;16894;49.456;10.644;2023-06-14T02:25:10;10.90;99.90
30069;DHT22;16894;49.456;10.644;2023-06-14T02:27:36;10.90;99.90
30069;DHT22;16894;49.456;10.644;2023-06-14T02:30:02;10.80;99.90
30069;DHT22;16894;49.456;10.644;2023-06-14T02:32:28;10.80;99.90
30069;DHT22;16894;49.456;10.644;2023-06-14T02:34:54;10.70;99.90
30069;DHT22;16894;49.456;10.644;2023-06-14T02:37:20;10.70;99.90
30069;DHT22;16894;49.456;10.644;2023-06-14T02:39:46;10.60;99.90
30069;DHT22;16894;49.456;10.644;2023-06-14T02:42:11;10.60;99.90
30069;DHT22;16894;49.456;10.644;2023-06-14T02:44:37;10.60;99.90
30069;DHT22;16894;49.456;10.644;2023-06-14T02:47:03;10.60;99.90
30069;DHT22;16894;49.456;10.644;2023-06-14T02:49:30;10.40;99.90
30069;DHT22;16894;49.456;10.644;2023-06-14T02:51:56;10.40;99.90
30069;DHT22;16894;49.456;10.644;2023-06-14T02:54:21;10.40;99.90
30069;DHT22;16894;49.456;10.644;2023-06-14T02:56:47;10.40;99.90
30069;DHT22;16894;49.456;10.644;2023-06-14T02:59:13;10.40;99.90
30069;DHT22;16894;49.456;10.644;2023-06-14T03:01:39;10.40;99.90
30069;DHT22;16894;49.456;10.644;2023-06-14T03:04:07;10.40;99.90
30069;DHT22;16894;49.456;10.644;2023-06-14T03:06:33;10.50;99.90
30069;DHT22;16894;49.456;10.644;2023-06-14T03:09:00;10.50;99.90
30069;DHT22;16894;49.456;10.644;2023-06-14T03:11:26;10.50;99.90
30069;DHT22;16894;49.456;10.644;2023-06-14T03:13:53;10.50;99.90
30069;DHT22;16894;49.456;10.644;2023-06-14T03:16:19;10.30;99.90
30069;DHT22;16894;49.456;10.644;2023-06-14T03:18:45;10.40;99.90
30069;DHT22;16894;49.456;10.644;2023-06-14T03:21:11;10.30;99.90
30069;DHT22;16894;49.456;10.644;2023-06-14T03:23:37;10.30;99.90
30069;DHT22;16894;49.456;10.644;2023-06-14T03:26:02;10.30;99.90
30069;DHT22;16894;49.456;10.644;2023-06-14T03:28:28;10.40;99.90
30069;DHT22;16894;49.456;10.644;2023-06-14T03:30:54;10.40;99.90
30069;DHT22;16894;49.456;10.644;2023-06-14T03:33:20;10.30;99.90
30069;DHT22;16894;49.456;10.644;2023-06-14T03:35:46;10.30;99.90
30069;DHT22;16894;49.456;10.644;2023-06-14T03:38:12;10.30;99.90
30069;DHT22;16894;49.456;10.644;2023-06-14T03:40:37;10.30;99.90
30069;DHT22;16894;49.456;10.644;2023-06-14T03:43:03;10.30;99.90
30069;DHT22;16894;49.456;10.644;2023-06-14T03:45:29;10.30;99.90
30069;DHT22;16894;49.456;10.644;2023-06-14T03:47:54;10.20;99.90
30069;DHT22;16894;49.456;10.644;2023-06-14T03:50:20;10.20;99.90
30069;DHT22;16894;49.456;10.644;2023-06-14T03:52:48;10.20;99.90
30069;DHT22;16894;49.456;10.644;2023-06-14T03:55:14;10.30;99.90
30069;DHT22;16894;49.456;10.644;2023-06-14T03:57:41;10.30;99.90
30069;DHT22;16894;49.456;10.644;2023-06-14T04:00:08;10.30;99.90
30069;DHT22;16894;49.456;10.644;2023-06-14T04:02:35;10.20;99.90
30069;DHT22;16894;49.456;10.644;2023-06-14T04:05:02;10.20;99.90
30069;DHT22;16894;49.456;10.644;2023-06-14T04:07:28;10.10;99.90
30069;DHT22;16894;49.456;10.644;2023-06-14T04:09:55;10.00;99.90
30069;DHT22;16894;49.456;10.644;2023-06-14T04:12:20;10.00;99.90
30069;DHT22;16894;49.456;10.644;2023-06-14T04:14:46;9.90;99.90
30069;DHT22;16894;49.456;10.644;2023-06-14T04:17:12;10.00;99.90
30069;DHT22;16894;49.456;10.644;2023-06-14T04:19:37;10.00;99.90
30069;DHT22;16894;49.456;10.644;2023-06-14T04:22:03;10.10;99.90
30069;DHT22;16894;49.456;10.644;2023-06-14T04:24:29;10.20;99.90
30069;DHT22;16894;49.456;10.644;2023-06-14T04:26:58;10.30;99.90
30069;DHT22;16894;49.456;10.644;2023-06-14T04:29:24;10.40;99.90
30069;DHT22;16894;49.456;10.644;2023-06-14T04:31:54;10.50;99.90
30069;DHT22;16894;49.456;10.644;2023-06-14T04:34:20;10.50;99.90
30069;DHT22;16894;49.456;10.644;2023-06-14T04:36:47;10.70;99.90
30069;DHT22;16894;49.456;10.644;2023-06-14T04:39:18;10.80;99.90
30069;DHT22;16894;49.456;10.644;2023-06-14T04:41:44;10.90;99.90
30069;DHT22;16894;49.456;10.644;2023-06-14T04:44:10;10.90;99.90
30069;DHT22;16894;49.456;10.644;2023-06-14T04:46:36;11.10;99.90
30069;DHT22;16894;49.456;10.644;2023-06-14T04:49:17;11.20;99.90
30069;DHT22;16894;49.456;10.644;2023-06-14T04:51:44;11.20;99.90
30069;DHT22;16894;49.456;10.644;2023-06-14T04:54:11;11.20;99.90
30069;DHT22;16894;49.456;10.644;2023-06-14T04:56:41;11.30;99.90
30069;DHT22;16894;49.456;10.644;2023-06-14T04:59:13;11.30;99.90
30069;DHT22;16894;49.456;10.644;2023-06-14T05:01:40;11.40;99.90
30069;DHT22;16894;49.456;10.644;2023-06-14T05:04:06;11.50;99.90
30069;DHT22;16894;49.456;10.644;2023-06-14T05:06:32;11.60;99.90
30069;DHT22;16894;49.456;10.644;2023-06-14T05:08:58;11.60;99.90
30069;DHT22;16894;49.456;10.644;2023-06-14T05:11:24;11.70;99.90
30069;DHT22;16894;49.456;10.644;2023-06-14T05:13:50;11.70;99.90
30069;DHT22;16894;49.456;10.644;2023-06-14T05:16:16;11.70;99.90
30069;DHT22;16894;49.456;10.644;2023-06-14T05:18:45;12.00;99.90
30069;DHT22;16894;49.456;10.644;2023-06-14T05:21:11;12.20;99.90
30069;DHT22;16894;49.456;10.644;2023-06-14T05:23:37;12.30;99.90
30069;DHT22;16894;49.456;10.644;2023-06-14T05:26:02;12.40;99.90
30069;DHT22;16894;49.456;10.644;2023-06-14T05:28:29;12.40;99.90
30069;DHT22;16894;49.456;10.644;2023-06-14T05:30:56;12.50;99.90
30069;DHT22;16894;49.456;10.644;2023-06-14T05:33:21;12.60;99.90
30069;DHT22;16894;49.456;10.644;2023-06-14T05:35:47;12.70;99.90
30069;DHT22;16894;49.456;10.644;2023-06-14T05:38:13;12.70;99.90
30069;DHT22;16894;49.456;10.644;2023-06-14T05:40:38;12.90;99.90
30069;DHT22;16894;49.456;10.644;2023-06-14T05:43:04;13.00;99.90
30069;DHT22;16894;49.456;10.644;2023-06-14T05:45:29;13.20;99.90
30069;DHT22;16894;49.456;10.644;2023-06-14T05:47:55;13.20;99.90
30069;DHT22;16894;49.456;10.644;2023-06-14T05:50:21;13.30;99.90
30069;DHT22;16894;49.456;10.644;2023-06-14T05:52:47;13.50;99.90
30069;DHT22;16894;49.456;10.644;2023-06-14T05:55:12;13.60;99.90
30069;DHT22;16894;49.456;10.644;2023-06-14T05:57:38;13.70;99.90
30069;DHT22;16894;49.456;10.644;2023-06-14T06:00:04;13.90;99.90
30069;DHT22;16894;49.456;10.644;2023-06-14T06:02:36;14.10;99.90
30069;DHT22;16894;49.456;10.644;2023-06-14T06:05:01;14.30;99.90
30069;DHT22;16894;49.456;10.644;2023-06-14T06:07:27;14.40;99.90
30069;DHT22;16894;49.456;10.644;2023-06-14T06:09:53;14.50;99.90
30069;DHT22;16894;49.456;10.644;2023-06-14T06:12:19;14.60;99.90
30069;DHT22;16894;49.456;10.644;2023-06-14T06:14:44;14.80;99.90
30069;DHT22;16894;49.456;10.644;2023-06-14T06:17:11;14.80;99.90
30069;DHT22;16894;49.456;10.644;2023-06-14T06:19:36;15.00;99.90
30069;DHT22;16894;49.456;10.644;2023-06-14T06:22:02;15.10;99.90
30069;DHT22;16894;49.456;10.644;2023-06-14T06:24:31;15.30;99.90
30069;DHT22;16894;49.456;10.644;2023-06-14T06:26:57;15.40;99.90
30069;DHT22;16894;49.456;10.644;2023-06-14T06:29:23;15.50;99.90
30069;DHT22;16894;49.456;10.644;2023-06-14T06:31:48;15.60;99.90
30069;DHT22;16894;49.456;10.644;2023-06-14T06:34:14;15.60;99.90
30069;DHT22;16894;49.456;10.644;2023-06-14T06:36:39;15.70;99.90
30069;DHT22;16894;49.456;10.644;2023-06-14T06:39:05;15.80;99.90
30069;DHT22;16894;49.456;10.644;2023-06-14T06:41:37;15.80;99.90
30069;DHT22;16894;49.456;10.644;2023-06-14T06:44:06;15.80;99.90
30069;DHT22;16894;49.456;10.644;2023-06-14T06:46:32;15.90;99.90
30069;DHT22;16894;49.456;10.644;2023-06-14T06:48:57;16.00;99.90
30069;DHT22;16894;49.456;10.644;2023-06-14T06:51:23;16.10;99.90
30069;DHT22;16894;49.456;10.644;2023-06-14T06:53:53;16.20;99.90
30069;DHT22;16894;49.456;10.644;2023-06-14T06:56:19;16.30;99.90
30069;DHT22;16894;49.456;10.644;2023-06-14T06:58:45;16.40;99.90
30069;DHT22;16894;49.456;10.644;2023-06-14T07:01:11;16.40;99.80
30069;DHT22;16894;49.456;10.644;2023-06-14T07:03:37;16.50;99.90
30069;DHT22;16894;49.456;10.644;2023-06-14T07:06:03;16.60;99.60
30069;DHT22;16894;49.456;10.644;2023-06-14T07:08:29;16.60;99.60
30069;DHT22;16894;49.456;10.644;2023-06-14T07:10:55;16.80;99.50
30069;DHT22;16894;49.456;10.644;2023-06-14T07:13:21;16.80;99.30
30069;DHT22;16894;49.456;10.644;2023-06-14T07:15:47;16.90;99.30
30069;DHT22;16894;49.456;10.644;2023-06-14T07:18:13;17.00;99.00
30069;DHT22;16894;49.456;10.644;2023-06-14T07:20:38;17.00;98.50
30069;DHT22;16894;49.456;10.644;2023-06-14T07:23:04;17.00;98.70
30069;DHT22;16894;49.456;10.644;2023-06-14T07:25:31;17.10;98.60
30069;DHT22;16894;49.456;10.644;2023-06-14T07:27:56;17.10;98.40
30069;DHT22;16894;49.456;10.644;2023-06-14T07:30:22;17.20;98.30
30069;DHT22;16894;49.456;10.644;2023-06-14T07:32:52;17.30;98.60
30069;DHT22;16894;49.456;10.644;2023-06-14T07:35:19;17.40;98.20
30069;DHT22;16894;49.456;10.644;2023-06-14T07:37:45;17.50;98.10
30069;DHT22;16894;49.456;10.644;2023-06-14T07:40:13;17.60;97.80
30069;DHT22;16894;49.456;10.644;2023-06-14T07:42:38;17.60;97.70
30069;DHT22;16894;49.456;10.644;2023-06-14T07:45:05;17.70;98.00
30069;DHT22;16894;49.456;10.644;2023-06-14T07:47:31;17.70;97.90
30069;DHT22;16894;49.456;10.644;2023-06-14T07:49:57;17.80;97.80
30069;DHT22;16894;49.456;10.644;2023-06-14T07:52:22;18.00;97.40
30069;DHT22;16894;49.456;10.644;2023-06-14T07:54:48;18.10;97.20
30069;DHT22;16894;49.456;10.644;2023-06-14T07:57:14;18.20;96.70
30069;DHT22;16894;49.456;10.644;2023-06-14T07:59:40;18.20;96.60
30069;DHT22;16894;49.456;10.644;2023-06-14T08:02:06;18.40;96.70
30069;DHT22;16894;49.456;10.644;2023-06-14T08:04:32;18.50;96.10
30069;DHT22;16894;49.456;10.644;2023-06-14T08:06:59;18.60;96.20
30069;DHT22;16894;49.456;10.644;2023-06-14T08:09:25;18.80;95.90
30069;DHT22;16894;49.456;10.644;2023-06-14T08:11:51;18.90;95.20
30069;DHT22;16894;49.456;10.644;2023-06-14T08:14:16;19.10;93.70
30069;DHT22;16894;49.456;10.644;2023-06-14T08:16:42;19.20;93.50
30069;DHT22;16894;49.456;10.644;2023-06-14T08:19:08;19.30;93.60
30069;DHT22;16894;49.456;10.644;2023-06-14T08:21:34;19.60;92.40
30069;DHT22;16894;49.456;10.644;2023-06-14T08:24:02;19.80;92.30
30069;DHT22;16894;49.456;10.644;2023-06-14T08:26:27;19.80;91.90
30069;DHT22;16894;49.456;10.644;2023-06-14T08:28:57;20.10;91.30
30069;DHT22;16894;49.456;10.644;2023-06-14T08:31:23;20.20;91.50
30069;DHT22;16894;49.456;10.644;2023-06-14T08:33:50;20.30;91.00
30069;DHT22;16894;49.456;10.644;2023-06-14T08:36:15;20.40;91.00
30069;DHT22;16894;49.456;10.644;2023-06-14T08:38:41;20.30;90.10
30069;DHT22;16894;49.456;10.644;2023-06-14T08:41:08;20.50;90.60
30069;DHT22;16894;49.456;10.644;2023-06-14T08:43:36;20.70;90.00
30069;DHT22;16894;49.456;10.644;2023-06-14T08:46:03;20.90;88.90
30069;DHT22;16894;49.456;10.644;2023-06-14T08:48:30;21.10;89.30
30069;DHT22;16894;49.456;10.644;2023-06-14T08:51:02;21.30;88.10
30069;DHT22;16894;49.456;10.644;2023-06-14T08:53:33;21.10;88.30
30069;DHT22;16894;49.456;10.644;2023-06-14T08:56:03;21.20;88.80
30069;DHT22;16894;49.456;10.644;2023-06-14T08:58:30;21.40;87.30
30069;DHT22;16894;49.456;10.644;2023-06-14T09:01:01;21.70;86.00
30069;DHT22;16894;49.456;10.644;2023-06-14T09:03:27;21.80;83.90
30069;DHT22;16894;49.456;10.644;2023-06-14T09:05:59;22.10;83.30
30069;DHT22;16894;49.456;10.644;2023-06-14T09:08:25;22.60;82.40
30069;DHT22;16894;49.456;10.644;2023-06-14T09:10:51;23.00;81.40
30069;DHT22;16894;49.456;10.644;2023-06-14T09:13:17;23.40;79.40
30069;DHT22;16894;49.456;10.644;2023-06-14T09:15:43;22.90;78.10
30069;DHT22;16894;49.456;10.644;2023-06-14T09:18:09;22.70;80.20
30069;DHT22;16894;49.456;10.644;2023-06-14T09:20:35;22.10;79.70
30069;DHT22;16894;49.456;10.644;2023-06-14T09:23:01;21.80;81.00
30069;DHT22;16894;49.456;10.644;2023-06-14T09:25:28;21.90;80.80
30069;DHT22;16894;49.456;10.644;2023-06-14T09:27:54;21.90;80.20
30069;DHT22;16894;49.456;10.644;2023-06-14T09:30:20;21.90;80.10
30069;DHT22;16894;49.456;10.644;2023-06-14T09:32:46;22.30;79.00
30069;DHT22;16894;49.456;10.644;2023-06-14T09:35:12;22.60;78.40
30069;DHT22;16894;49.456;10.644;2023-06-14T09:37:42;22.90;77.10
30069;DHT22;16894;49.456;10.644;2023-06-14T09:40:08;23.10;75.70
30069;DHT22;16894;49.456;10.644;2023-06-14T09:42:35;23.10;76.40
30069;DHT22;16894;49.456;10.644;2023-06-14T09:45:02;22.90;76.00
30069;DHT22;16894;49.456;10.644;2023-06-14T09:47:29;22.60;75.30
30069;DHT22;16894;49.456;10.644;2023-06-14T09:49:55;22.70;75.80
30069;DHT22;16894;49.456;10.644;2023-06-14T09:52:21;23.20;75.40
30069;DHT22;16894;49.456;10.644;2023-06-14T09:54:47;23.90;74.10
30069;DHT22;16894;49.456;10.644;2023-06-14T09:57:22;24.40;72.20
30069;DHT22;16894;49.456;10.644;2023-06-14T09:59:49;24.10;70.60
30069;DHT22;16894;49.456;10.644;2023-06-14T10:02:35;24.50;71.50
30069;DHT22;16894;49.456;10.644;2023-06-14T10:05:07;24.40;69.70
30069;DHT22;16894;49.456;10.644;2023-06-14T10:07:44;23.60;71.30
30069;DHT22;16894;49.456;10.644;2023-06-14T10:10:14;23.40;70.70
30069;DHT22;16894;49.456;10.644;2023-06-14T10:12:40;23.30;71.00
30069;DHT22;16894;49.456;10.644;2023-06-14T10:15:08;23.30;70.50
30069;DHT22;16894;49.456;10.644;2023-06-14T10:17:46;22.90;71.00
30069;DHT22;16894;49.456;10.644;2023-06-14T10:20:45;23.60;70.80
30069;DHT22;16894;49.456;10.644;2023-06-14T10:23:21;24.60;69.80
30069;DHT22;16894;49.456;10.644;2023-06-14T10:25:54;25.90;67.10
30069;DHT22;16894;49.456;10.644;2023-06-14T10:28:22;26.30;64.70
30069;DHT22;16894;49.456;10.644;2023-06-14T10:31:11;26.50;64.50
30069;DHT22;16894;49.456;10.644;2023-06-14T10:33:49;26.50;63.00
30069;DHT22;16894;49.456;10.644;2023-06-14T10:36:28;26.00;63.30
30069;DHT22;16894;49.456;10.644;2023-06-14T10:39:03;25.50;63.20
30069;DHT22;16894;49.456;10.644;2023-06-14T10:41:30;24.80;64.10
30069;DHT22;16894;49.456;10.644;2023-06-14T10:46:49;24.00;64.50
30069;DHT22;16894;49.456;10.644;2023-06-14T10:49:18;24.60;66.30
30069;DHT22;16894;49.456;10.644;2023-06-14T10:51:53;25.50;65.30
30069;DHT22;16894;49.456;10.644;2023-06-14T10:54:22;25.40;64.60
30069;DHT22;16894;49.456;10.644;2023-06-14T10:56:51;25.10;63.60
30069;DHT22;16894;49.456;10.644;2023-06-14T10:59:18;24.60;63.80
30069;DHT22;16894;49.456;10.644;2023-06-14T11:02:20;24.60;65.80
30069;DHT22;16894;49.456;10.644;2023-06-14T11:04:51;25.90;64.80
30069;DHT22;16894;49.456;10.644;2023-06-14T11:10:36;27.90;60.50
30069;DHT22;16894;49.456;10.644;2023-06-14T11:13:06;28.10;59.50
30069;DHT22;16894;49.456;10.644;2023-06-14T11:15:34;27.20;59.60
30069;DHT22;16894;49.456;10.644;2023-06-14T11:18:05;26.50;61.50
30069;DHT22;16894;49.456;10.644;2023-06-14T11:20:36;26.00;62.00
30069;DHT22;16894;49.456;10.644;2023-06-14T11:23:03;25.40;61.40
30069;DHT22;16894;49.456;10.644;2023-06-14T11:25:28;25.20;62.00
30069;DHT22;16894;49.456;10.644;2023-06-14T11:27:54;25.50;62.20
30069;DHT22;16894;49.456;10.644;2023-06-14T11:30:25;26.70;60.60
30069;DHT22;16894;49.456;10.644;2023-06-14T11:32:54;26.50;59.30
30069;DHT22;16894;49.456;10.644;2023-06-14T11:35:23;26.70;59.90
30069;DHT22;16894;49.456;10.644;2023-06-14T11:37:53;26.60;59.40
30069;DHT22;16894;49.456;10.644;2023-06-14T11:40:23;26.40;59.60
30069;DHT22;16894;49.456;10.644;2023-06-14T11:42:49;26.20;60.00
30069;DHT22;16894;49.456;10.644;2023-06-14T11:45:15;26.10;60.30
30069;DHT22;16894;49.456;10.644;2023-06-14T11:47:41;25.80;60.80
30069;DHT22;16894;49.456;10.644;2023-06-14T11:50:07;26.10;61.10
30069;DHT22;16894;49.456;10.644;2023-06-14T11:52:36;27.30;60.60
30069;DHT22;16894;49.456;10.644;2023-06-14T11:55:03;28.60;58.70
30069;DHT22;16894;49.456;10.644;2023-06-14T11:57:36;28.80;55.60
30069;DHT22;16894;49.456;10.644;2023-06-14T12:00:06;27.90;55.70
30069;DHT22;16894;49.456;10.644;2023-06-14T12:02:41;27.10;56.90
30069;DHT22;16894;49.456;10.644;2023-06-14T12:05:07;26.40;56.70
30069;DHT22;16894;49.456;10.644;2023-06-14T12:07:39;26.00;57.40
30069;DHT22;16894;49.456;10.644;2023-06-14T12:10:07;25.60;58.00
30069;DHT22;16894;49.456;10.644;2023-06-14T12:12:38;25.40;57.40
30069;DHT22;16894;49.456;10.644;2023-06-14T12:15:05;25.20;57.90
30069;DHT22;16894;49.456;10.644;2023-06-14T12:17:35;24.90;59.20
30069;DHT22;16894;49.456;10.644;2023-06-14T12:20:06;24.70;59.70
30069;DHT22;16894;49.456;10.644;2023-06-14T12:22:34;24.60;59.00
30069;DHT22;16894;49.456;10.644;2023-06-14T12:25:00;24.30;59.50
30069;DHT22;16894;49.456;10.644;2023-06-14T12:27:26;24.50;59.50
30069;DHT22;16894;49.456;10.644;2023-06-14T12:30:04;24.70;59.70
30069;DHT22;16894;49.456;10.644;2023-06-14T12:32:32;25.00;59.20
30069;DHT22;16894;49.456;10.644;2023-06-14T12:34:58;25.00;59.10
30069;DHT22;16894;49.456;10.644;2023-06-14T12:37:23;25.40;59.10
30069;DHT22;16894;49.456;10.644;2023-06-14T12:39:49;25.60;58.00
30069;DHT22;16894;49.456;10.644;2023-06-14T12:42:16;25.60;57.40
30069;DHT22;16894;49.456;10.644;2023-06-14T12:44:42;25.40;57.90
30069;DHT22;16894;49.456;10.644;2023-06-14T12:47:08;25.60;57.40
30069;DHT22;16894;49.456;10.644;2023-06-14T12:49:33;25.60;58.20
30069;DHT22;16894;49.456;10.644;2023-06-14T12:51:59;25.60;57.30
30069;DHT22;16894;49.456;10.644;2023-06-14T12:54:24;25.90;57.70
30069;DHT22;16894;49.456;10.644;2023-06-14T12:56:53;26.20;56.60
30069;DHT22;16894;49.456;10.644;2023-06-14T12:59:20;26.50;56.90
30069;DHT22;16894;49.456;10.644;2023-06-14T13:01:46;26.80;56.40
30069;DHT22;16894;49.456;10.644;2023-06-14T13:04:15;27.60;55.40
30069;DHT22;16894;49.456;10.644;2023-06-14T13:06:40;28.30;54.20
30069;DHT22;16894;49.456;10.644;2023-06-14T13:09:06;29.10;53.20
30069;DHT22;16894;49.456;10.644;2023-06-14T13:11:33;29.00;52.40
30069;DHT22;16894;49.456;10.644;2023-06-14T13:13:59;29.20;52.60
30069;DHT22;16894;49.456;10.644;2023-06-14T13:16:24;29.40;52.00
30069;DHT22;16894;49.456;10.644;2023-06-14T13:18:50;29.60;51.80
30069;DHT22;16894;49.456;10.644;2023-06-14T13:21:16;29.70;52.20
30069;DHT22;16894;49.456;10.644;2023-06-14T13:23:41;30.00;51.50
30069;DHT22;16894;49.456;10.644;2023-06-14T13:26:07;29.00;51.70
30069;DHT22;16894;49.456;10.644;2023-06-14T13:28:33;29.20;52.30
30069;DHT22;16894;49.456;10.644;2023-06-14T13:31:00;31.10;50.00
30069;DHT22;16894;49.456;10.644;2023-06-14T13:33:26;32.20;48.80
30069;DHT22;16894;49.456;10.644;2023-06-14T13:35:52;32.10;48.50
30069;DHT22;16894;49.456;10.644;2023-06-14T13:38:18;31.30;47.60
30069;DHT22;16894;49.456;10.644;2023-06-14T13:40:44;30.60;48.80
30069;DHT22;16894;49.456;10.644;2023-06-14T13:43:09;30.10;49.30
30069;DHT22;16894;49.456;10.644;2023-06-14T13:45:35;29.20;48.60
30069;DHT22;16894;49.456;10.644;2023-06-14T13:48:01;28.10;50.80
30069;DHT22;16894;49.456;10.644;2023-06-14T13:50:27;28.50;50.40
30069;DHT22;16894;49.456;10.644;2023-06-14T13:52:53;28.20;50.90
30069;DHT22;16894;49.456;10.644;2023-06-14T13:55:18;28.30;51.50
30069;DHT22;16894;49.456;10.644;2023-06-14T13:57:44;28.50;51.30
30069;DHT22;16894;49.456;10.644;2023-06-14T14:00:11;29.00;50.70
30069;DHT22;16894;49.456;10.644;2023-06-14T14:02:37;30.30;49.50
30069;DHT22;16894;49.456;10.644;2023-06-14T14:05:03;31.40;48.20
30069;DHT22;16894;49.456;10.644;2023-06-14T14:07:29;31.20;47.10
30069;DHT22;16894;49.456;10.644;2023-06-14T14:09:55;30.90;47.50
30069;DHT22;16894;49.456;10.644;2023-06-14T14:12:23;31.60;46.50
30069;DHT22;16894;49.456;10.644;2023-06-14T14:14:49;31.00;46.40
30069;DHT22;16894;49.456;10.644;2023-06-14T14:17:15;30.10;47.70
30069;DHT22;16894;49.456;10.644;2023-06-14T14:19:41;30.40;46.80
30069;DHT22;16894;49.456;10.644;2023-06-14T14:22:07;30.50;47.20
30069;DHT22;16894;49.456;10.644;2023-06-14T14:24:32;30.50;47.40
30069;DHT22;16894;49.456;10.644;2023-06-14T14:26:58;31.60;45.50
30069;DHT22;16894;49.456;10.644;2023-06-14T14:29:25;33.70;45.60
30069;DHT22;16894;49.456;10.644;2023-06-14T14:31:54;34.90;43.90
30069;DHT22;16894;49.456;10.644;2023-06-14T14:34:20;35.50;42.60
30069;DHT22;16894;49.456;10.644;2023-06-14T14:36:46;35.90;42.30
30069;DHT22;16894;49.456;10.644;2023-06-14T14:39:11;36.50;41.10
30069;DHT22;16894;49.456;10.644;2023-06-14T14:41:37;35.80;41.20
30069;DHT22;16894;49.456;10.644;2023-06-14T14:44:04;36.10;41.60
30069;DHT22;16894;49.456;10.644;2023-06-14T14:46:30;36.50;40.60
30069;DHT22;16894;49.456;10.644;2023-06-14T14:48:55;35.70;40.70
30069;DHT22;16894;49.456;10.644;2023-06-14T14:51:21;35.70;40.40
30069;DHT22;16894;49.456;10.644;2023-06-14T14:53:47;35.00;41.80
30069;DHT22;16894;49.456;10.644;2023-06-14T14:56:12;35.20;41.00
30069;DHT22;16894;49.456;10.644;2023-06-14T14:58:41;34.20;41.10
30069;DHT22;16894;49.456;10.644;2023-06-14T15:01:06;33.30;42.20
30069;DHT22;16894;49.456;10.644;2023-06-14T15:03:32;33.90;41.50
30069;DHT22;16894;49.456;10.644;2023-06-14T15:05:58;33.30;42.80
30069;DHT22;16894;49.456;10.644;2023-06-14T15:08:24;32.90;42.60
30069;DHT22;16894;49.456;10.644;2023-06-14T15:10:50;32.30;42.90
30069;DHT22;16894;49.456;10.644;2023-06-14T15:13:16;32.30;42.90
30069;DHT22;16894;49.456;10.644;2023-06-14T15:15:42;31.40;43.50
30069;DHT22;16894;49.456;10.644;2023-06-14T15:18:08;30.30;44.60
30069;DHT22;16894;49.456;10.644;2023-06-14T15:20:35;29.70;43.90
30069;DHT22;16894;49.456;10.644;2023-06-14T15:23:01;29.40;44.10
30069;DHT22;16894;49.456;10.644;2023-06-14T15:25:27;29.10;45.30